createdAt,value
2017-08-13T13:49:28.038Z,1010.10
2017-08-13T13:50:29.551Z,1010.08
2017-08-13T13:51:30.986Z,1010.00
2017-08-13T13:52:32.447Z,1010.01
2017-08-13T13:53:33.987Z,1010.15
2017-08-13T13:54:35.431Z,1010.12
2017-08-13T13:55:36.869Z,1010.01
2017-08-13T13:56:38.323Z,1010.02
2017-08-13T13:57:39.766Z,1010.03
2017-08-13T13:58:41.200Z,1010.06
2017-08-13T13:59:42.634Z,1010.06
2017-08-13T14:00:44.066Z,1010.09
2017-08-13T14:01:45.502Z,1010.07
2017-08-13T14:02:46.932Z,1010.11
2017-08-13T14:03:48.367Z,1010.12
2017-08-13T14:04:51.244Z,1010.12
2017-08-13T14:05:52.532Z,1010.18
2017-08-13T14:06:53.970Z,1010.13
2017-08-13T14:07:55.402Z,1010.11
2017-08-13T14:08:56.840Z,1010.12
2017-08-13T14:09:58.274Z,1010.15
2017-08-13T14:10:59.713Z,1010.15
2017-08-13T14:12:01.147Z,1010.16
2017-08-13T14:13:02.583Z,1010.17
2017-08-13T14:14:04.021Z,1010.21
2017-08-13T14:15:05.452Z,1010.19
2017-08-13T14:16:06.879Z,1010.19
2017-08-13T14:17:08.319Z,1010.18
2017-08-13T14:18:09.763Z,1010.20
2017-08-13T14:19:11.203Z,1010.22
2017-08-13T14:20:12.630Z,1010.22
2017-08-13T14:21:14.163Z,1010.24
2017-08-13T14:22:15.597Z,1010.23
2017-08-13T14:23:17.033Z,1010.24
2017-08-13T14:24:18.469Z,1010.22
2017-08-13T14:25:19.918Z,1010.19
2017-08-13T14:26:21.337Z,1010.16
2017-08-13T14:27:22.782Z,1010.19
2017-08-13T14:28:24.318Z,1010.11
2017-08-13T14:29:25.750Z,1010.12
2017-08-13T14:30:27.178Z,1010.17
2017-08-13T14:31:28.618Z,1010.17
2017-08-13T14:32:30.070Z,1010.16
2017-08-13T14:33:31.508Z,1010.13
2017-08-13T14:34:32.942Z,1010.13
2017-08-13T14:35:34.384Z,1010.14
2017-08-13T14:36:35.817Z,1010.10
2017-08-13T14:37:37.249Z,1010.15
2017-08-13T14:38:38.686Z,1010.14
2017-08-13T14:39:40.241Z,1010.13
2017-08-13T14:40:41.680Z,1010.14
2017-08-13T14:41:43.113Z,1010.10
2017-08-13T14:42:44.539Z,1010.15
2017-08-13T14:43:45.978Z,1010.14
2017-08-13T14:44:47.412Z,1010.15
2017-08-13T14:45:48.838Z,1010.15
2017-08-13T14:46:50.282Z,1010.16
2017-08-13T14:47:51.712Z,1010.18
2017-08-13T14:48:53.149Z,1010.20
2017-08-13T14:49:54.580Z,1010.18
2017-08-13T14:50:56.020Z,1010.27
2017-08-13T14:51:57.445Z,1010.32
2017-08-13T14:52:58.876Z,1010.27
2017-08-13T14:54:00.328Z,1010.27
2017-08-13T14:55:01.767Z,1010.26
2017-08-13T14:56:03.198Z,1010.22
2017-08-13T14:57:04.634Z,1010.19
2017-08-13T14:58:06.070Z,1010.19
2017-08-13T14:59:07.573Z,1010.13
2017-08-13T15:00:09.011Z,1010.18
2017-08-13T15:01:10.482Z,1010.14
2017-08-13T15:02:12.439Z,1010.14
2017-08-13T15:03:13.873Z,1010.16
2017-08-13T15:04:15.299Z,1010.16
2017-08-13T15:05:16.728Z,1010.14
2017-08-13T15:06:18.155Z,1010.16
2017-08-13T15:07:19.583Z,1010.14
2017-08-13T15:08:21.022Z,1010.19
2017-08-13T15:09:22.449Z,1010.16
2017-08-13T15:10:23.906Z,1010.17
2017-08-13T15:11:25.356Z,1010.16
2017-08-13T15:12:26.787Z,1010.21
2017-08-13T15:13:28.220Z,1010.24
2017-08-13T15:14:29.659Z,1010.21
2017-08-13T15:15:31.091Z,1010.22
2017-08-13T15:16:32.520Z,1010.20
2017-08-13T15:17:33.953Z,1010.20
2017-08-13T15:18:35.378Z,1010.16
2017-08-13T15:19:36.809Z,1010.18
2017-08-13T15:20:38.240Z,1010.21
2017-08-13T15:21:39.665Z,1010.21
2017-08-13T15:22:41.106Z,1010.20
2017-08-13T15:23:42.537Z,1010.22
2017-08-13T15:24:43.976Z,1010.25
2017-08-13T15:25:45.399Z,1010.22
2017-08-13T15:26:46.863Z,1010.22
2017-08-13T15:27:48.298Z,1010.25
2017-08-13T15:28:49.734Z,1010.22
2017-08-13T15:29:51.175Z,1010.25
2017-08-13T15:30:52.610Z,1010.25
2017-08-13T15:31:54.041Z,1010.23
2017-08-13T15:32:55.468Z,1010.25
2017-08-13T15:33:56.902Z,1010.25
2017-08-13T15:34:59.156Z,1010.22
2017-08-13T15:36:00.587Z,1010.24
2017-08-13T15:37:02.029Z,1010.25
2017-08-13T15:38:03.460Z,1010.23
2017-08-13T15:39:04.900Z,1010.24
2017-08-13T15:40:06.335Z,1010.24
2017-08-13T15:41:07.779Z,1010.25
2017-08-13T15:42:09.206Z,1010.25
2017-08-13T15:43:10.644Z,1010.25
2017-08-13T15:44:12.094Z,1010.26
2017-08-13T15:45:13.544Z,1010.25
2017-08-13T15:46:14.970Z,1010.25
2017-08-13T15:47:16.404Z,1010.29
2017-08-13T15:48:18.285Z,1010.32
2017-08-13T15:49:20.082Z,1010.33
2017-08-13T15:50:21.519Z,1010.28
2017-08-13T15:51:22.946Z,1010.33
2017-08-13T15:52:24.608Z,1010.29
2017-08-13T15:53:26.052Z,1010.28
2017-08-13T15:54:28.430Z,1010.27
2017-08-13T15:55:29.859Z,1010.28
2017-08-13T15:56:31.316Z,1010.31
2017-08-13T15:57:32.755Z,1010.32
2017-08-13T15:58:34.194Z,1010.32
2017-08-13T15:59:35.625Z,1010.36
2017-08-13T16:00:37.093Z,1010.32
2017-08-13T16:01:38.519Z,1010.33
2017-08-13T16:02:40.169Z,1010.33
2017-08-13T16:03:41.595Z,1010.37
2017-08-13T16:04:43.039Z,1010.37
2017-08-13T16:05:44.465Z,1010.38
2017-08-13T16:06:46.018Z,1010.37
2017-08-13T16:07:47.433Z,1010.34
2017-08-13T16:08:49.163Z,1010.35
2017-08-13T16:09:50.594Z,1010.40
2017-08-13T16:10:52.019Z,1010.43
2017-08-13T16:11:53.455Z,1010.46
2017-08-13T16:12:54.893Z,1010.45
2017-08-13T16:13:56.335Z,1010.40
2017-08-13T16:14:57.771Z,1010.45
2017-08-13T16:15:59.203Z,1010.42
2017-08-13T16:17:00.632Z,1010.39
2017-08-13T16:18:02.062Z,1010.41
2017-08-13T16:19:03.493Z,1010.41
2017-08-13T16:20:04.927Z,1010.41
2017-08-13T16:21:06.360Z,1010.45
2017-08-13T16:22:07.782Z,1010.44
2017-08-13T16:23:09.208Z,1010.42
2017-08-13T16:24:10.641Z,1010.50
2017-08-13T16:25:12.075Z,1010.46
2017-08-13T16:26:13.510Z,1010.49
2017-08-13T16:27:14.940Z,1010.42
2017-08-13T16:28:16.377Z,1010.42
2017-08-13T16:29:17.804Z,1010.45
2017-08-13T16:30:19.234Z,1010.43
2017-08-13T16:31:20.662Z,1010.43
2017-08-13T16:32:22.098Z,1010.43
2017-08-13T16:33:23.528Z,1010.39
2017-08-13T16:34:24.955Z,1010.42
2017-08-13T16:35:26.382Z,1010.39
2017-08-13T16:36:27.819Z,1010.37
2017-08-13T16:37:29.246Z,1010.38
2017-08-13T16:38:30.680Z,1010.42
2017-08-13T16:39:32.117Z,1010.42
2017-08-13T16:40:33.559Z,1010.44
2017-08-13T16:41:34.989Z,1010.43
2017-08-13T16:42:36.422Z,1010.44
2017-08-13T16:43:37.851Z,1010.43
2017-08-13T16:44:39.279Z,1010.41
2017-08-13T16:45:40.709Z,1010.44
2017-08-13T16:46:42.145Z,1010.44
2017-08-13T16:47:43.582Z,1010.41
2017-08-13T16:48:45.020Z,1010.41
2017-08-13T16:49:46.443Z,1010.44
2017-08-13T16:50:47.983Z,1010.41
2017-08-13T16:51:49.419Z,1010.42
2017-08-13T16:52:50.852Z,1010.43
2017-08-13T16:53:52.282Z,1010.42
2017-08-13T16:54:53.714Z,1010.36
2017-08-13T16:55:55.151Z,1010.38
2017-08-13T16:56:56.582Z,1010.34
2017-08-13T16:57:58.020Z,1010.31
2017-08-13T16:58:59.462Z,1010.38
2017-08-13T17:00:00.894Z,1010.34
2017-08-13T17:01:02.330Z,1010.19
2017-08-13T17:02:03.797Z,1010.26
2017-08-13T17:03:05.239Z,1010.36
2017-08-13T17:04:06.674Z,1010.36
2017-08-13T17:05:08.130Z,1010.30
2017-08-13T17:06:09.586Z,1010.37
2017-08-13T17:07:11.015Z,1010.39
2017-08-13T17:08:12.458Z,1010.37
2017-08-13T17:09:13.892Z,1010.35
2017-08-13T17:10:15.328Z,1010.39
2017-08-13T17:11:16.760Z,1010.33
2017-08-13T17:12:18.231Z,1010.37
2017-08-13T17:13:19.675Z,1010.36
2017-08-13T17:14:21.103Z,1010.35
2017-08-13T17:15:22.534Z,1010.41
2017-08-13T17:16:23.980Z,1010.34
2017-08-13T17:17:25.424Z,1010.34
2017-08-13T17:18:26.855Z,1010.35
2017-08-13T17:19:28.282Z,1010.33
2017-08-13T17:20:29.732Z,1010.33
2017-08-13T17:21:31.161Z,1010.29
2017-08-13T17:22:32.589Z,1010.22
2017-08-13T17:23:34.019Z,1010.24
2017-08-13T17:24:35.447Z,1010.25
2017-08-13T17:25:36.887Z,1010.28
2017-08-13T17:26:38.322Z,1010.23
2017-08-13T17:27:39.768Z,1010.28
2017-08-13T17:28:41.197Z,1010.29
2017-08-13T17:29:42.631Z,1010.30
2017-08-13T17:30:44.054Z,1010.29
2017-08-13T17:31:45.506Z,1010.29
2017-08-13T17:32:46.939Z,1010.23
2017-08-13T17:33:48.377Z,1010.23
2017-08-13T17:34:49.809Z,1010.31
2017-08-13T17:35:51.242Z,1010.29
2017-08-13T17:36:52.661Z,1010.32
2017-08-13T17:37:54.097Z,1010.28
2017-08-13T17:38:55.536Z,1010.30
2017-08-13T17:39:56.967Z,1010.34
2017-08-13T17:40:58.409Z,1010.32
2017-08-13T17:41:59.837Z,1010.35
2017-08-13T17:43:01.274Z,1010.36
2017-08-13T17:44:02.696Z,1010.35
2017-08-13T17:45:04.130Z,1010.32
2017-08-13T17:46:05.566Z,1010.35
2017-08-13T17:47:06.990Z,1010.36
2017-08-13T17:48:08.423Z,1010.36
2017-08-13T17:49:09.854Z,1010.37
2017-08-13T17:50:11.278Z,1010.41
2017-08-13T17:51:12.714Z,1010.40
2017-08-13T17:52:14.161Z,1010.40
2017-08-13T17:53:15.588Z,1010.44
2017-08-13T17:54:17.026Z,1010.43
2017-08-13T17:55:18.461Z,1010.44
2017-08-13T17:56:19.916Z,1010.39
2017-08-13T17:57:21.350Z,1010.38
2017-08-13T17:58:22.779Z,1010.39
2017-08-13T17:59:24.741Z,1010.45
2017-08-13T18:00:26.960Z,1010.42
2017-08-13T18:01:29.238Z,1010.38
2017-08-13T18:02:30.678Z,1010.36
2017-08-13T18:03:32.113Z,1010.35
2017-08-13T18:04:33.544Z,1010.32
2017-08-13T18:05:35.804Z,1010.43
2017-08-13T18:06:37.246Z,1010.42
2017-08-13T18:07:38.683Z,1010.42
2017-08-13T18:08:40.136Z,1010.42
2017-08-13T18:09:41.568Z,1010.43
2017-08-13T18:10:43.002Z,1010.44
2017-08-13T18:11:44.433Z,1010.41
2017-08-13T18:12:45.859Z,1010.44
2017-08-13T18:13:47.309Z,1010.49
2017-08-13T18:14:48.739Z,1010.46
2017-08-13T18:15:50.905Z,1010.51
2017-08-13T18:16:53.061Z,1010.49
2017-08-13T18:17:54.503Z,1010.49
2017-08-13T18:18:55.939Z,1010.44
2017-08-13T18:19:57.370Z,1010.38
2017-08-13T18:20:58.803Z,1010.21
2017-08-13T18:22:00.282Z,1010.16
2017-08-13T18:23:01.726Z,1009.93
2017-08-13T18:24:03.158Z,1010.09
2017-08-13T18:25:04.584Z,1010.06
2017-08-13T18:26:06.022Z,1010.05
2017-08-13T18:27:07.460Z,1009.97
2017-08-13T18:28:08.897Z,1010.00
2017-08-13T18:29:10.326Z,1010.02
2017-08-13T18:30:11.759Z,1009.89
2017-08-13T18:31:13.873Z,1010.00
2017-08-13T18:32:15.546Z,1010.04
2017-08-13T18:33:16.982Z,1010.04
2017-08-13T18:34:18.414Z,1010.04
2017-08-13T18:35:19.856Z,1009.94
2017-08-13T18:36:21.289Z,1009.96
2017-08-13T18:37:22.719Z,1010.02
2017-08-13T18:38:24.150Z,1009.72
2017-08-13T18:39:27.370Z,1009.78
2017-08-13T18:40:29.049Z,1009.72
2017-08-13T18:41:30.480Z,1009.73
2017-08-13T18:42:31.929Z,1009.71
2017-08-13T18:43:33.353Z,1009.71
2017-08-13T18:44:34.789Z,1009.78
2017-08-13T18:45:36.221Z,1009.82
2017-08-13T18:46:38.374Z,1009.78
2017-08-13T18:47:39.037Z,1009.88
2017-08-13T18:48:41.377Z,1009.77
2017-08-13T18:49:45.422Z,1009.74
2017-08-13T18:50:46.878Z,1009.76
2017-08-13T18:51:48.310Z,1009.67
2017-08-13T18:52:50.436Z,1009.65
2017-08-13T18:53:52.559Z,1009.72
2017-08-13T18:54:54.000Z,1009.76
2017-08-13T18:55:55.427Z,1009.74
2017-08-13T18:56:57.456Z,1009.79
2017-08-13T18:57:59.765Z,1009.73
2017-08-13T18:59:01.192Z,1009.69
2017-08-13T19:00:02.628Z,1009.65
2017-08-13T19:01:04.060Z,1009.64
2017-08-13T19:02:06.450Z,1009.64
2017-08-13T19:03:07.880Z,1009.61
2017-08-13T19:04:09.322Z,1009.65
2017-08-13T19:05:10.745Z,1009.64
2017-08-13T19:06:13.893Z,1009.63
2017-08-13T19:07:15.325Z,1009.60
2017-08-13T19:08:16.764Z,1009.62
2017-08-13T19:09:18.888Z,1009.52
2017-08-13T19:10:20.346Z,1009.47
2017-08-13T19:11:21.777Z,1009.41
2017-08-13T19:12:23.230Z,1009.38
2017-08-13T19:13:24.664Z,1009.39
2017-08-13T19:14:26.096Z,1009.39
2017-08-13T19:15:27.532Z,1009.40
2017-08-13T19:16:29.687Z,1009.38
2017-08-13T19:17:31.122Z,1009.38
2017-08-13T19:18:32.580Z,1009.30
2017-08-13T19:19:34.008Z,1009.32
2017-08-13T19:20:35.436Z,1009.34
2017-08-13T19:21:37.481Z,1009.34
2017-08-13T19:22:44.188Z,1009.31
2017-08-13T19:23:45.632Z,1009.34
2017-08-13T19:24:47.052Z,1009.34
2017-08-13T19:25:48.475Z,1009.29
2017-08-13T19:26:49.909Z,1009.28
2017-08-13T19:27:51.335Z,1009.26
2017-08-13T19:28:52.760Z,1009.22
2017-08-13T19:29:55.193Z,1009.26
2017-08-13T19:30:57.235Z,1009.22
2017-08-13T19:31:59.588Z,1009.19
2017-08-13T19:33:01.021Z,1009.22
2017-08-13T19:34:03.398Z,1009.17
2017-08-13T19:35:05.511Z,1009.16
2017-08-13T19:36:07.583Z,1009.19
2017-08-13T19:37:09.576Z,1009.18
2017-08-13T19:38:11.936Z,1009.10
2017-08-13T19:39:14.281Z,1009.10
2017-08-13T19:40:15.717Z,1009.07
2017-08-13T19:41:18.003Z,1009.04
2017-08-13T19:42:20.142Z,1009.05
2017-08-13T19:43:21.593Z,1008.97
2017-08-13T19:44:23.937Z,1009.01
2017-08-13T19:45:26.083Z,1009.02
2017-08-13T19:46:28.111Z,1009.01
2017-08-13T19:47:30.088Z,1009.03
2017-08-13T19:48:32.505Z,1008.99
2017-08-13T19:49:34.842Z,1008.91
2017-08-13T19:50:36.280Z,1008.90
2017-08-13T19:51:38.238Z,1008.86
2017-08-13T19:52:40.652Z,1008.86
2017-08-13T19:53:43.009Z,1008.89
2017-08-13T19:54:45.374Z,1008.87
2017-08-13T19:55:46.819Z,1008.86
2017-08-13T19:56:48.980Z,1008.87
2017-08-13T19:57:51.013Z,1008.85
2017-08-13T19:58:53.288Z,1008.87
2017-08-13T19:59:55.505Z,1008.77
2017-08-13T20:00:57.568Z,1008.82
2017-08-13T20:01:59.593Z,1008.78
2017-08-13T20:03:01.562Z,1008.78
2017-08-13T20:04:03.879Z,1008.76
2017-08-13T20:05:06.047Z,1008.73
2017-08-13T20:06:08.135Z,1008.71
2017-08-13T20:07:10.139Z,1008.74
2017-08-13T20:08:12.099Z,1008.72
2017-08-13T20:09:14.405Z,1008.77
2017-08-13T20:10:16.704Z,1008.74
2017-08-13T20:11:18.905Z,1008.76
2017-08-13T20:12:20.344Z,1008.77
2017-08-13T20:13:22.336Z,1008.77
2017-08-13T20:14:24.771Z,1008.78
2017-08-13T20:15:26.752Z,1008.82
2017-08-13T20:16:29.014Z,1008.79
2017-08-13T20:17:31.253Z,1008.80
2017-08-13T20:18:33.249Z,1008.78
2017-08-13T20:19:35.688Z,1008.75
2017-08-13T20:20:37.922Z,1008.76
2017-08-13T20:21:39.356Z,1008.73
2017-08-13T20:22:41.574Z,1008.75
2017-08-13T20:23:43.771Z,1008.75
2017-08-13T20:24:45.194Z,1008.81
2017-08-13T20:25:47.558Z,1008.77
2017-08-13T20:26:49.773Z,1008.79
2017-08-13T20:27:51.933Z,1008.79
2017-08-13T20:28:53.365Z,1008.76
2017-08-13T20:29:55.354Z,1008.74
2017-08-13T20:30:57.697Z,1008.73
2017-08-13T20:31:59.968Z,1008.73
2017-08-13T20:33:01.996Z,1008.70
2017-08-13T20:34:04.347Z,1008.70
2017-08-13T20:35:06.445Z,1008.68
2017-08-13T20:36:08.510Z,1008.69
2017-08-13T20:37:10.801Z,1008.71
2017-08-13T20:38:12.855Z,1008.69
2017-08-13T20:39:14.827Z,1008.67
2017-08-13T20:40:16.285Z,1008.68
2017-08-13T20:41:17.733Z,1008.75
2017-08-13T20:42:19.795Z,1008.72
2017-08-13T20:43:21.997Z,1008.68
2017-08-13T20:44:24.003Z,1008.73
2017-08-13T20:45:26.287Z,1008.73
2017-08-13T20:46:27.715Z,1008.74
2017-08-13T20:47:29.895Z,1008.73
2017-08-13T20:48:31.908Z,1008.76
2017-08-13T20:49:33.879Z,1008.74
2017-08-13T20:50:35.905Z,1008.75
2017-08-13T20:51:38.132Z,1008.72
2017-08-13T20:52:40.194Z,1008.75
2017-08-13T20:53:42.154Z,1008.77
2017-08-13T20:54:42.982Z,1008.78
2017-08-13T20:55:45.343Z,1008.74
2017-08-13T20:56:46.773Z,1008.76
2017-08-13T20:57:48.210Z,1008.74
2017-08-13T20:58:49.639Z,1008.77
2017-08-13T20:59:51.057Z,1008.76
2017-08-13T21:00:52.476Z,1008.77
2017-08-13T21:01:53.909Z,1008.77
2017-08-13T21:02:55.333Z,1008.73
2017-08-13T21:03:56.760Z,1008.75
2017-08-13T21:04:58.190Z,1008.73
2017-08-13T21:05:59.623Z,1008.70
2017-08-13T21:07:01.045Z,1008.71
2017-08-13T21:08:02.479Z,1008.69
2017-08-13T21:09:03.905Z,1008.72
2017-08-13T21:10:05.332Z,1008.74
2017-08-13T21:11:06.745Z,1008.75
2017-08-13T21:12:08.163Z,1008.73
2017-08-13T21:13:09.587Z,1008.76
2017-08-13T21:14:11.014Z,1008.72
2017-08-13T21:15:12.434Z,1008.74
2017-08-13T21:16:13.863Z,1008.77
2017-08-13T21:17:15.290Z,1008.76
2017-08-13T21:18:16.719Z,1008.70
2017-08-13T21:19:18.158Z,1008.72
2017-08-13T21:20:19.576Z,1008.72
2017-08-13T21:21:21.002Z,1008.74
2017-08-13T21:22:22.426Z,1008.69
2017-08-13T21:23:23.852Z,1008.68
2017-08-13T21:24:25.287Z,1008.68
2017-08-13T21:25:26.721Z,1008.70
2017-08-13T21:26:28.158Z,1008.67
2017-08-13T21:27:29.607Z,1008.68
2017-08-13T21:28:31.043Z,1008.69
2017-08-13T21:29:32.499Z,1008.63
2017-08-13T21:30:33.944Z,1008.60
2017-08-13T21:31:35.365Z,1008.60
2017-08-13T21:32:36.805Z,1008.60
2017-08-13T21:33:38.227Z,1008.57
2017-08-13T21:34:39.659Z,1008.56
2017-08-13T21:35:41.098Z,1008.56
2017-08-13T21:36:42.528Z,1008.54
2017-08-13T21:37:43.959Z,1008.56
2017-08-13T21:38:45.390Z,1008.60
2017-08-13T21:39:46.808Z,1008.57
2017-08-13T21:40:48.239Z,1008.56
2017-08-13T21:41:49.662Z,1008.59
2017-08-13T21:42:51.090Z,1008.61
2017-08-13T21:43:52.505Z,1008.59
2017-08-13T21:44:54.914Z,1008.59
2017-08-13T21:45:56.334Z,1008.61
2017-08-13T21:46:57.764Z,1008.60
2017-08-13T21:47:59.194Z,1008.59
2017-08-13T21:49:00.611Z,1008.59
2017-08-13T21:50:02.031Z,1008.59
2017-08-13T21:51:03.460Z,1008.56
2017-08-13T21:52:04.891Z,1008.57
2017-08-13T21:53:06.318Z,1008.53
2017-08-13T21:54:07.740Z,1008.57
2017-08-13T21:55:09.163Z,1008.55
2017-08-13T21:56:10.595Z,1008.56
2017-08-13T21:57:12.017Z,1008.51
2017-08-13T21:58:13.444Z,1008.53
2017-08-13T21:59:14.880Z,1008.56
2017-08-13T22:00:16.302Z,1008.55
2017-08-13T22:01:17.750Z,1008.57
2017-08-13T22:02:19.175Z,1008.53
2017-08-13T22:03:20.599Z,1008.53
2017-08-13T22:04:22.021Z,1008.58
2017-08-13T22:05:23.448Z,1008.56
2017-08-13T22:06:24.870Z,1008.53
2017-08-13T22:07:26.288Z,1008.54
2017-08-13T22:08:27.706Z,1008.51
2017-08-13T22:09:29.129Z,1008.52
2017-08-13T22:10:30.550Z,1008.52
2017-08-13T22:11:31.974Z,1008.56
2017-08-13T22:12:33.402Z,1008.60
2017-08-13T22:13:34.845Z,1008.59
2017-08-13T22:14:36.268Z,1008.58
2017-08-13T22:15:37.697Z,1008.60
2017-08-13T22:16:39.125Z,1008.57
2017-08-13T22:17:40.541Z,1008.59
2017-08-13T22:18:41.968Z,1008.61
2017-08-13T22:19:43.400Z,1008.67
2017-08-13T22:20:44.819Z,1008.66
2017-08-13T22:21:46.244Z,1008.62
2017-08-13T22:22:47.671Z,1008.58
2017-08-13T22:23:49.113Z,1008.55
2017-08-13T22:24:50.533Z,1008.57
2017-08-13T22:25:51.960Z,1008.58
2017-08-13T22:26:53.391Z,1008.51
2017-08-13T22:27:54.808Z,1008.51
2017-08-13T22:28:56.257Z,1008.46
2017-08-13T22:29:57.679Z,1008.45
2017-08-13T22:30:59.109Z,1008.47
2017-08-13T22:32:00.551Z,1008.48
2017-08-13T22:33:02.042Z,1008.46
2017-08-13T22:34:03.452Z,1008.45
2017-08-13T22:35:04.881Z,1008.44
2017-08-13T22:36:06.308Z,1008.48
2017-08-13T22:37:07.804Z,1008.48
2017-08-13T22:38:09.245Z,1008.47
2017-08-13T22:39:10.657Z,1008.42
2017-08-13T22:40:12.086Z,1008.45
2017-08-13T22:41:13.518Z,1008.45
2017-08-13T22:42:14.939Z,1008.46
2017-08-13T22:43:16.370Z,1008.48
2017-08-13T22:44:17.806Z,1008.42
2017-08-13T22:45:19.233Z,1008.43
2017-08-13T22:46:20.663Z,1008.48
2017-08-13T22:47:22.091Z,1008.46
2017-08-13T22:48:23.523Z,1008.46
2017-08-13T22:49:24.948Z,1008.49
2017-08-13T22:50:26.365Z,1008.51
2017-08-13T22:51:27.787Z,1008.51
2017-08-13T22:52:29.217Z,1008.50
2017-08-13T22:53:30.653Z,1008.52
2017-08-13T22:54:32.076Z,1008.55
2017-08-13T22:55:33.501Z,1008.50
2017-08-13T22:56:34.921Z,1008.52
2017-08-13T22:57:36.345Z,1008.53
2017-08-13T22:58:37.785Z,1008.49
2017-08-13T22:59:39.206Z,1008.45
2017-08-13T23:00:40.631Z,1008.45
2017-08-13T23:01:42.060Z,1008.45
2017-08-13T23:02:43.488Z,1008.40
2017-08-13T23:03:44.908Z,1008.40
2017-08-13T23:04:46.346Z,1008.40
2017-08-13T23:05:47.767Z,1008.38
2017-08-13T23:06:49.189Z,1008.36
2017-08-13T23:07:50.608Z,1008.36
2017-08-13T23:08:52.032Z,1008.37
2017-08-13T23:09:53.451Z,1008.38
2017-08-13T23:10:54.879Z,1008.42
2017-08-13T23:11:56.304Z,1008.43
2017-08-13T23:12:57.734Z,1008.41
2017-08-13T23:13:59.158Z,1008.40
2017-08-13T23:15:00.584Z,1008.43
2017-08-13T23:16:02.003Z,1008.43
2017-08-13T23:17:03.429Z,1008.39
2017-08-13T23:18:04.857Z,1008.42
2017-08-13T23:19:06.287Z,1008.39
2017-08-13T23:20:07.717Z,1008.39
2017-08-13T23:21:09.134Z,1008.39
2017-08-13T23:22:10.558Z,1008.44
2017-08-13T23:23:11.982Z,1008.43
2017-08-13T23:24:13.406Z,1008.47
2017-08-13T23:25:14.837Z,1008.42
2017-08-13T23:26:16.255Z,1008.47
2017-08-13T23:27:17.684Z,1008.44
2017-08-13T23:28:19.109Z,1008.46
2017-08-13T23:29:20.541Z,1008.46
2017-08-13T23:30:21.945Z,1008.42
2017-08-13T23:31:23.372Z,1008.43
2017-08-13T23:32:24.809Z,1008.39
2017-08-13T23:33:26.271Z,1008.39
2017-08-13T23:34:27.699Z,1008.40
2017-08-13T23:35:29.127Z,1008.43
2017-08-13T23:36:30.556Z,1008.40
2017-08-13T23:37:31.977Z,1008.43
2017-08-13T23:38:33.393Z,1008.36
2017-08-13T23:39:34.831Z,1008.35
2017-08-13T23:40:36.265Z,1008.37
2017-08-13T23:41:37.705Z,1008.34
2017-08-13T23:42:39.137Z,1008.30
2017-08-13T23:43:40.566Z,1008.33
2017-08-13T23:44:41.988Z,1008.34
2017-08-13T23:45:43.407Z,1008.34
2017-08-13T23:46:44.839Z,1008.31
2017-08-13T23:47:46.264Z,1008.32
2017-08-13T23:48:47.687Z,1008.35
2017-08-13T23:49:49.117Z,1008.34
2017-08-13T23:50:50.540Z,1008.33
2017-08-13T23:51:51.958Z,1008.32
2017-08-13T23:52:53.389Z,1008.35
2017-08-13T23:53:54.811Z,1008.36
2017-08-13T23:54:56.232Z,1008.33
2017-08-13T23:55:57.654Z,1008.35
2017-08-13T23:56:59.077Z,1008.34
2017-08-13T23:58:00.502Z,1008.29
2017-08-13T23:59:01.917Z,1008.39
